sensor_id;sensor_type;location;lat;lon;timestamp;P1;durP1;ratioP1;P2;durP2;ratioP2
66374;SDS011;53173;52.176;5.314;2022-11-20T00:00:24;22.73;;;12.50;;
66374;SDS011;53173;52.176;5.314;2022-11-20T00:02:51;16.00;;;11.60;;
66374;SDS011;53173;52.176;5.314;2022-11-20T00:05:18;16.52;;;11.68;;
66374;SDS011;53173;52.176;5.314;2022-11-20T00:07:52;15.90;;;11.73;;
66374;SDS011;53173;52.176;5.314;2022-11-20T00:10:19;23.63;;;12.93;;
66374;SDS011;53173;52.176;5.314;2022-11-20T00:12:46;16.45;;;11.85;;
66374;SDS011;53173;52.176;5.314;2022-11-20T00:15:13;16.45;;;11.73;;
66374;SDS011;53173;52.176;5.314;2022-11-20T00:17:46;14.55;;;11.68;;
66374;SDS011;53173;52.176;5.314;2022-11-20T00:20:14;18.38;;;11.95;;
66374;SDS011;53173;52.176;5.314;2022-11-20T00:22:41;14.20;;;11.18;;
66374;SDS011;53173;52.176;5.314;2022-11-20T00:25:08;20.25;;;12.68;;
66374;SDS011;53173;52.176;5.314;2022-11-20T00:27:36;18.20;;;12.52;;
66374;SDS011;53173;52.176;5.314;2022-11-20T00:30:03;17.73;;;12.98;;
66374;SDS011;53173;52.176;5.314;2022-11-20T00:32:30;13.77;;;10.95;;
66374;SDS011;53173;52.176;5.314;2022-11-20T00:34:58;19.83;;;12.90;;
66374;SDS011;53173;52.176;5.314;2022-11-20T00:37:25;18.02;;;12.25;;
66374;SDS011;53173;52.176;5.314;2022-11-20T00:39:53;16.13;;;10.73;;
66374;SDS011;53173;52.176;5.314;2022-11-20T00:42:20;15.18;;;10.50;;
66374;SDS011;53173;52.176;5.314;2022-11-20T00:44:47;13.45;;;10.23;;
66374;SDS011;53173;52.176;5.314;2022-11-20T00:47:14;13.68;;;10.18;;
66374;SDS011;53173;52.176;5.314;2022-11-20T00:49:41;14.32;;;10.30;;
66374;SDS011;53173;52.176;5.314;2022-11-20T00:52:08;16.77;;;10.60;;
66374;SDS011;53173;52.176;5.314;2022-11-20T00:54:36;14.50;;;10.52;;
66374;SDS011;53173;52.176;5.314;2022-11-20T00:57:03;15.77;;;10.13;;
66374;SDS011;53173;52.176;5.314;2022-11-20T00:59:30;15.35;;;11.77;;
66374;SDS011;53173;52.176;5.314;2022-11-20T01:01:57;13.45;;;11.18;;
66374;SDS011;53173;52.176;5.314;2022-11-20T01:04:25;13.85;;;10.90;;
66374;SDS011;53173;52.176;5.314;2022-11-20T01:06:52;16.30;;;10.80;;
66374;SDS011;53173;52.176;5.314;2022-11-20T01:09:20;16.10;;;10.90;;
66374;SDS011;53173;52.176;5.314;2022-11-20T01:11:47;13.70;;;10.20;;
66374;SDS011;53173;52.176;5.314;2022-11-20T01:14:16;15.27;;;10.82;;
66374;SDS011;53173;52.176;5.314;2022-11-20T01:16:47;16.00;;;10.85;;
66374;SDS011;53173;52.176;5.314;2022-11-20T01:19:17;14.88;;;11.25;;
66374;SDS011;53173;52.176;5.314;2022-11-20T01:21:46;14.85;;;10.25;;
66374;SDS011;53173;52.176;5.314;2022-11-20T01:24:14;16.20;;;11.30;;
66374;SDS011;53173;52.176;5.314;2022-11-20T01:26:43;13.98;;;11.05;;
66374;SDS011;53173;52.176;5.314;2022-11-20T01:29:13;16.00;;;11.45;;
66374;SDS011;53173;52.176;5.314;2022-11-20T01:31:41;17.17;;;12.45;;
66374;SDS011;53173;52.176;5.314;2022-11-20T01:34:10;18.80;;;10.82;;
66374;SDS011;53173;52.176;5.314;2022-11-20T01:36:38;16.42;;;10.80;;
66374;SDS011;53173;52.176;5.314;2022-11-20T01:39:06;16.85;;;10.60;;
66374;SDS011;53173;52.176;5.314;2022-11-20T01:41:34;17.42;;;10.32;;
66374;SDS011;53173;52.176;5.314;2022-11-20T01:44:21;14.20;;;10.90;;
66374;SDS011;53173;52.176;5.314;2022-11-20T01:46:59;16.85;;;10.50;;
66374;SDS011;53173;52.176;5.314;2022-11-20T01:49:41;14.13;;;10.32;;
66374;SDS011;53173;52.176;5.314;2022-11-20T01:52:15;19.05;;;10.80;;
66374;SDS011;53173;52.176;5.314;2022-11-20T01:54:49;14.05;;;10.18;;
66374;SDS011;53173;52.176;5.314;2022-11-20T01:57:17;13.48;;;10.75;;
66374;SDS011;53173;52.176;5.314;2022-11-20T01:59:47;19.85;;;10.85;;
66374;SDS011;53173;52.176;5.314;2022-11-20T02:02:18;16.17;;;10.48;;
66374;SDS011;53173;52.176;5.314;2022-11-20T02:04:45;13.13;;;9.75;;
66374;SDS011;53173;52.176;5.314;2022-11-20T02:07:13;12.98;;;9.90;;
66374;SDS011;53173;52.176;5.314;2022-11-20T02:09:40;11.15;;;9.13;;
66374;SDS011;53173;52.176;5.314;2022-11-20T02:12:07;12.57;;;9.73;;
66374;SDS011;53173;52.176;5.314;2022-11-20T02:14:55;13.75;;;9.60;;
66374;SDS011;53173;52.176;5.314;2022-11-20T02:17:22;15.95;;;10.82;;
66374;SDS011;53173;52.176;5.314;2022-11-20T02:19:50;14.90;;;9.93;;
66374;SDS011;53173;52.176;5.314;2022-11-20T02:22:19;16.15;;;10.77;;
66374;SDS011;53173;52.176;5.314;2022-11-20T02:24:48;16.48;;;11.20;;
66374;SDS011;53173;52.176;5.314;2022-11-20T02:27:16;17.70;;;10.45;;
66374;SDS011;53173;52.176;5.314;2022-11-20T02:32:17;15.80;;;11.18;;
66374;SDS011;53173;52.176;5.314;2022-11-20T02:34:45;17.40;;;11.93;;
66374;SDS011;53173;52.176;5.314;2022-11-20T02:37:12;18.77;;;11.77;;
66374;SDS011;53173;52.176;5.314;2022-11-20T02:39:40;20.30;;;12.27;;
66374;SDS011;53173;52.176;5.314;2022-11-20T02:42:08;20.23;;;13.27;;
66374;SDS011;53173;52.176;5.314;2022-11-20T02:44:35;21.45;;;12.32;;
66374;SDS011;53173;52.176;5.314;2022-11-20T02:47:03;16.60;;;11.95;;
66374;SDS011;53173;52.176;5.314;2022-11-20T02:49:30;17.08;;;11.02;;
66374;SDS011;53173;52.176;5.314;2022-11-20T02:51:57;14.93;;;10.80;;
66374;SDS011;53173;52.176;5.314;2022-11-20T02:54:24;18.30;;;11.07;;
66374;SDS011;53173;52.176;5.314;2022-11-20T02:56:52;15.82;;;10.95;;
66374;SDS011;53173;52.176;5.314;2022-11-20T02:59:19;18.15;;;11.43;;
66374;SDS011;53173;52.176;5.314;2022-11-20T03:01:47;14.35;;;10.60;;
66374;SDS011;53173;52.176;5.314;2022-11-20T03:04:15;15.75;;;10.63;;
66374;SDS011;53173;52.176;5.314;2022-11-20T03:06:42;17.67;;;11.77;;
66374;SDS011;53173;52.176;5.314;2022-11-20T03:09:09;17.20;;;11.75;;
66374;SDS011;53173;52.176;5.314;2022-11-20T03:11:36;16.95;;;11.55;;
66374;SDS011;53173;52.176;5.314;2022-11-20T03:14:04;16.95;;;11.95;;
66374;SDS011;53173;52.176;5.314;2022-11-20T03:16:32;16.63;;;11.95;;
66374;SDS011;53173;52.176;5.314;2022-11-20T03:18:59;18.00;;;12.45;;
66374;SDS011;53173;52.176;5.314;2022-11-20T03:21:27;17.35;;;12.18;;
66374;SDS011;53173;52.176;5.314;2022-11-20T03:23:54;22.63;;;12.68;;
66374;SDS011;53173;52.176;5.314;2022-11-20T03:26:22;24.75;;;13.13;;
66374;SDS011;53173;52.176;5.314;2022-11-20T03:28:55;18.80;;;12.43;;
66374;SDS011;53173;52.176;5.314;2022-11-20T03:31:24;17.75;;;12.27;;
66374;SDS011;53173;52.176;5.314;2022-11-20T03:33:52;19.95;;;12.52;;
66374;SDS011;53173;52.176;5.314;2022-11-20T03:36:19;19.63;;;12.65;;
66374;SDS011;53173;52.176;5.314;2022-11-20T03:38:48;17.88;;;12.57;;
66374;SDS011;53173;52.176;5.314;2022-11-20T03:41:17;18.52;;;13.18;;
66374;SDS011;53173;52.176;5.314;2022-11-20T03:43:52;19.75;;;12.68;;
66374;SDS011;53173;52.176;5.314;2022-11-20T03:46:20;21.83;;;13.55;;
66374;SDS011;53173;52.176;5.314;2022-11-20T03:48:53;16.63;;;12.15;;
66374;SDS011;53173;52.176;5.314;2022-11-20T03:51:21;21.10;;;13.10;;
66374;SDS011;53173;52.176;5.314;2022-11-20T03:53:50;18.08;;;12.70;;
66374;SDS011;53173;52.176;5.314;2022-11-20T03:56:18;19.63;;;13.25;;
66374;SDS011;53173;52.176;5.314;2022-11-20T03:58:51;18.15;;;11.98;;
66374;SDS011;53173;52.176;5.314;2022-11-20T04:01:20;21.17;;;12.77;;
66374;SDS011;53173;52.176;5.314;2022-11-20T04:03:47;19.92;;;13.50;;
66374;SDS011;53173;52.176;5.314;2022-11-20T04:06:16;16.90;;;11.52;;
66374;SDS011;53173;52.176;5.314;2022-11-20T04:08:43;15.73;;;11.40;;
66374;SDS011;53173;52.176;5.314;2022-11-20T04:11:20;16.52;;;11.18;;
66374;SDS011;53173;52.176;5.314;2022-11-20T04:13:48;20.90;;;13.07;;
66374;SDS011;53173;52.176;5.314;2022-11-20T04:16:16;19.60;;;13.02;;
66374;SDS011;53173;52.176;5.314;2022-11-20T04:18:44;20.00;;;12.65;;
66374;SDS011;53173;52.176;5.314;2022-11-20T04:21:11;17.95;;;12.15;;
66374;SDS011;53173;52.176;5.314;2022-11-20T04:23:38;20.15;;;12.48;;
66374;SDS011;53173;52.176;5.314;2022-11-20T04:26:09;18.95;;;12.20;;
66374;SDS011;53173;52.176;5.314;2022-11-20T04:28:37;21.42;;;12.15;;
66374;SDS011;53173;52.176;5.314;2022-11-20T04:31:05;16.08;;;12.23;;
66374;SDS011;53173;52.176;5.314;2022-11-20T04:33:33;20.10;;;12.50;;
66374;SDS011;53173;52.176;5.314;2022-11-20T04:36:01;21.15;;;11.98;;
66374;SDS011;53173;52.176;5.314;2022-11-20T04:38:39;17.83;;;11.82;;
66374;SDS011;53173;52.176;5.314;2022-11-20T04:41:08;16.13;;;12.07;;
66374;SDS011;53173;52.176;5.314;2022-11-20T04:43:35;17.30;;;10.85;;
66374;SDS011;53173;52.176;5.314;2022-11-20T04:46:02;15.13;;;11.35;;
66374;SDS011;53173;52.176;5.314;2022-11-20T04:48:35;18.65;;;11.70;;
66374;SDS011;53173;52.176;5.314;2022-11-20T04:51:02;17.08;;;11.88;;
66374;SDS011;53173;52.176;5.314;2022-11-20T04:53:30;16.63;;;11.90;;
66374;SDS011;53173;52.176;5.314;2022-11-20T04:56:01;17.20;;;11.43;;
66374;SDS011;53173;52.176;5.314;2022-11-20T04:58:34;16.42;;;11.00;;
66374;SDS011;53173;52.176;5.314;2022-11-20T05:01:02;19.42;;;11.77;;
66374;SDS011;53173;52.176;5.314;2022-11-20T05:03:30;17.15;;;11.60;;
66374;SDS011;53173;52.176;5.314;2022-11-20T05:06:01;14.68;;;11.30;;
66374;SDS011;53173;52.176;5.314;2022-11-20T05:08:34;16.30;;;10.80;;
66374;SDS011;53173;52.176;5.314;2022-11-20T05:13:28;15.90;;;11.20;;
66374;SDS011;53173;52.176;5.314;2022-11-20T05:16:00;15.05;;;10.88;;
66374;SDS011;53173;52.176;5.314;2022-11-20T05:18:33;14.70;;;10.90;;
66374;SDS011;53173;52.176;5.314;2022-11-20T05:21:01;13.38;;;10.10;;
66374;SDS011;53173;52.176;5.314;2022-11-20T05:23:30;12.95;;;9.65;;
66374;SDS011;53173;52.176;5.314;2022-11-20T05:25:58;12.40;;;9.77;;
66374;SDS011;53173;52.176;5.314;2022-11-20T05:28:26;13.98;;;10.60;;
66374;SDS011;53173;52.176;5.314;2022-11-20T05:30:53;12.52;;;9.93;;
66374;SDS011;53173;52.176;5.314;2022-11-20T05:33:20;13.52;;;10.20;;
66374;SDS011;53173;52.176;5.314;2022-11-20T05:35:48;19.77;;;9.75;;
66374;SDS011;53173;52.176;5.314;2022-11-20T05:38:15;16.85;;;10.75;;
66374;SDS011;53173;52.176;5.314;2022-11-20T05:40:42;15.10;;;10.02;;
66374;SDS011;53173;52.176;5.314;2022-11-20T05:43:10;14.60;;;9.55;;
66374;SDS011;53173;52.176;5.314;2022-11-20T05:45:37;11.20;;;9.13;;
66374;SDS011;53173;52.176;5.314;2022-11-20T05:48:04;15.45;;;9.77;;
66374;SDS011;53173;52.176;5.314;2022-11-20T05:50:31;13.38;;;9.80;;
66374;SDS011;53173;52.176;5.314;2022-11-20T05:52:59;14.70;;;9.93;;
66374;SDS011;53173;52.176;5.314;2022-11-20T05:55:27;13.55;;;10.43;;
66374;SDS011;53173;52.176;5.314;2022-11-20T05:58:00;14.45;;;9.70;;
66374;SDS011;53173;52.176;5.314;2022-11-20T06:00:27;11.57;;;9.00;;
66374;SDS011;53173;52.176;5.314;2022-11-20T06:02:54;12.88;;;9.25;;
66374;SDS011;53173;52.176;5.314;2022-11-20T06:05:21;11.60;;;9.02;;
66374;SDS011;53173;52.176;5.314;2022-11-20T06:07:49;13.35;;;9.80;;
66374;SDS011;53173;52.176;5.314;2022-11-20T06:10:16;11.98;;;9.35;;
66374;SDS011;53173;52.176;5.314;2022-11-20T06:12:43;14.15;;;9.27;;
66374;SDS011;53173;52.176;5.314;2022-11-20T06:15:10;16.27;;;9.50;;
66374;SDS011;53173;52.176;5.314;2022-11-20T06:17:37;11.30;;;8.73;;
66374;SDS011;53173;52.176;5.314;2022-11-20T06:20:05;11.20;;;8.75;;
66374;SDS011;53173;52.176;5.314;2022-11-20T06:22:32;15.35;;;9.07;;
66374;SDS011;53173;52.176;5.314;2022-11-20T06:24:59;11.60;;;9.18;;
66374;SDS011;53173;52.176;5.314;2022-11-20T06:27:26;13.40;;;9.50;;
66374;SDS011;53173;52.176;5.314;2022-11-20T06:29:54;14.60;;;9.88;;
66374;SDS011;53173;52.176;5.314;2022-11-20T06:32:21;13.23;;;9.73;;
66374;SDS011;53173;52.176;5.314;2022-11-20T06:34:48;14.93;;;10.30;;
66374;SDS011;53173;52.176;5.314;2022-11-20T06:37:15;14.25;;;9.88;;
66374;SDS011;53173;52.176;5.314;2022-11-20T06:39:42;10.95;;;8.82;;
66374;SDS011;53173;52.176;5.314;2022-11-20T06:42:10;12.40;;;9.50;;
66374;SDS011;53173;52.176;5.314;2022-11-20T06:44:37;12.43;;;8.82;;
66374;SDS011;53173;52.176;5.314;2022-11-20T06:47:04;14.10;;;9.60;;
66374;SDS011;53173;52.176;5.314;2022-11-20T06:49:36;16.17;;;9.85;;
66374;SDS011;53173;52.176;5.314;2022-11-20T06:52:04;12.60;;;8.98;;
66374;SDS011;53173;52.176;5.314;2022-11-20T06:54:31;12.30;;;9.32;;
66374;SDS011;53173;52.176;5.314;2022-11-20T06:56:59;18.02;;;10.50;;
66374;SDS011;53173;52.176;5.314;2022-11-20T06:59:26;17.67;;;10.43;;
66374;SDS011;53173;52.176;5.314;2022-11-20T07:01:53;15.00;;;9.20;;
66374;SDS011;53173;52.176;5.314;2022-11-20T07:04:20;14.40;;;9.70;;
66374;SDS011;53173;52.176;5.314;2022-11-20T07:06:48;12.82;;;9.25;;
66374;SDS011;53173;52.176;5.314;2022-11-20T07:09:15;12.85;;;9.50;;
66374;SDS011;53173;52.176;5.314;2022-11-20T07:11:42;13.48;;;9.43;;
66374;SDS011;53173;52.176;5.314;2022-11-20T07:14:09;15.32;;;9.82;;
66374;SDS011;53173;52.176;5.314;2022-11-20T07:16:37;12.00;;;10.02;;
66374;SDS011;53173;52.176;5.314;2022-11-20T07:19:04;14.82;;;9.05;;
66374;SDS011;53173;52.176;5.314;2022-11-20T07:21:31;13.18;;;9.77;;
66374;SDS011;53173;52.176;5.314;2022-11-20T07:23:58;13.80;;;10.35;;
66374;SDS011;53173;52.176;5.314;2022-11-20T07:26:26;14.57;;;9.73;;
66374;SDS011;53173;52.176;5.314;2022-11-20T07:28:53;13.82;;;10.20;;
66374;SDS011;53173;52.176;5.314;2022-11-20T07:31:20;15.77;;;9.13;;
66374;SDS011;53173;52.176;5.314;2022-11-20T07:33:48;15.52;;;9.98;;
66374;SDS011;53173;52.176;5.314;2022-11-20T07:36:15;15.63;;;9.63;;
66374;SDS011;53173;52.176;5.314;2022-11-20T07:38:42;13.10;;;10.15;;
66374;SDS011;53173;52.176;5.314;2022-11-20T07:41:09;15.90;;;9.90;;
